KPWD/PWD METAR and TAF weather

Enter ICAO airport designator
Station Type Date Time Source
KPWD METAR 2022/06/30 13:35 UTC NOAA

KPWD 301335Z AUTO 32007KT 10SM BKN075 13/11 A3000 RMK AO2 TSNO


Station Type Date Time Source
KPWD Decoded METAR 2022/06/30 13:35 UTC NOAA

Station name not available
Jun 30, 2022 - 09:35 AM EDT / 2022.06.30 1335 UTC
Wind: from the NW (320 degrees) at 8 MPH (7 KT):0
Visibility: 10 mile(s):0
Sky conditions: mostly cloudy
Temperature: 55 F (13 C)
Dew Point: 51 F (11 C)
Relative Humidity: 87%
Pressure (altimeter): 30 in. Hg (1015 hPa)
ob: KPWD 301335Z AUTO 32007KT 10SM BKN075 13/11 A3000 RMK AO2 TSNO
cycle: 13

Station Type Date Time Source
KPWD TAF UTC NOAA

Error!

Example: see airport list